Time;durP1;ratioP1;P1;durP2;ratioP2;P2;SDS_P1;SDS_P2;PMS_P1;PMS_P2;Temp;Humidity;BMP_temperature;BMP_pressure;BME280_temperature;BME280_humidity;BME280_pressure;Samples;Min_cycle;Max_cycle;Signal;HPM_P1;HPM_P2
2022/12/21 00:01:22;;;;;;;22.77;8.10;;;11.80;99.90;;;;;;5012498;28;20037;-80
2022/12/21 00:03:57;;;;;;;22.17;8.68;;;11.80;99.90;;;;;;4988733;28;20045;-81
2022/12/21 00:06:25;;;;;;;21.70;8.48;;;11.80;99.90;;;;;;5012778;28;20026;-81
2022/12/21 00:08:53;;;;;;;23.50;8.23;;;11.80;99.90;;;;;;5007512;28;20022;-80
2022/12/21 00:11:21;;;;;;;26.30;8.48;;;11.80;99.90;;;;;;5013815;28;20029;-81
2022/12/21 00:13:48;;;;;;;24.88;9.23;;;11.90;99.90;;;;;;5007917;28;20117;-81
2022/12/21 00:16:16;;;;;;;18.52;10.68;;;11.80;99.90;;;;;;5014583;28;20018;-81
2022/12/21 00:18:43;;;;;;;22.63;11.50;;;11.80;99.90;;;;;;5008689;28;20065;-81
2022/12/21 00:21:14;;;;;;;38.05;15.68;;;11.70;99.90;;;;;;5004741;28;20048;-81
2022/12/21 00:23:41;;;;;;;28.27;8.90;;;11.60;99.90;;;;;;5009012;28;20102;-81
2022/12/21 00:26:07;;;;;;;26.38;8.07;;;11.60;99.90;;;;;;5014802;28;20375;-81
2022/12/21 00:28:34;;;;;;;16.90;8.02;;;11.60;99.90;;;;;;5013121;28;20054;-81
2022/12/21 00:31:07;;;;;;;30.17;9.20;;;11.60;99.90;;;;;;5014995;28;20030;-81
2022/12/21 00:33:33;;;;;;;28.40;9.45;;;11.70;99.90;;;;;;4998868;28;20485;-81
2022/12/21 00:35:59;;;;;;;22.80;7.43;;;11.80;99.90;;;;;;5014957;28;20018;-78
2022/12/21 00:38:25;;;;;;;24.15;9.52;;;11.90;99.90;;;;;;5007995;28;20401;-81
2022/12/21 00:40:57;;;;;;;19.58;8.10;;;11.90;99.90;;;;;;5015429;28;20022;-82
2022/12/21 00:43:23;;;;;;;19.83;8.35;;;12.00;99.90;;;;;;5009989;28;20062;-81
2022/12/21 00:45:49;;;;;;;19.20;7.32;;;12.00;99.90;;;;;;5001929;28;20029;-79
2022/12/21 00:48:15;;;;;;;20.00;8.40;;;12.00;99.90;;;;;;5012923;28;20025;-81
2022/12/21 00:50:40;;;;;;;27.20;9.32;;;12.00;99.90;;;;;;5020091;28;20102;-78
2022/12/21 00:53:08;;;;;;;24.27;8.00;;;12.00;99.90;;;;;;5011805;28;20105;-78
2022/12/21 00:55:35;;;;;;;25.77;9.27;;;12.00;99.90;;;;;;5020103;28;20052;-81
2022/12/21 00:58:01;;;;;;;17.70;9.15;;;12.00;99.90;;;;;;5008276;28;20025;-82
2022/12/21 01:00:27;;;;;;;21.25;9.88;;;12.00;99.90;;;;;;5013940;28;20802;-80
2022/12/21 01:02:54;;;;;;;18.10;8.65;;;12.00;99.90;;;;;;5010912;28;20030;-81
2022/12/21 01:05:20;;;;;;;21.73;8.88;;;12.00;99.90;;;;;;5014035;28;20101;-82
2022/12/21 01:07:47;;;;;;;23.83;9.82;;;11.90;99.90;;;;;;5013587;28;20036;-81
2022/12/21 01:10:14;;;;;;;80.75;44.42;;;11.90;99.90;;;;;;4993272;28;20385;-80
2022/12/21 01:12:40;;;;;;;17.98;9.45;;;11.90;99.90;;;;;;5013717;28;20049;-80
2022/12/21 01:15:07;;;;;;;17.55;8.63;;;11.90;99.90;;;;;;5002511;28;20029;-79
2022/12/21 01:17:34;;;;;;;18.25;9.07;;;11.80;99.90;;;;;;4996614;28;20034;-81
2022/12/21 01:20:00;;;;;;;20.85;9.30;;;11.90;99.90;;;;;;5001962;28;20109;-81
2022/12/21 01:22:26;;;;;;;18.15;9.38;;;11.80;99.90;;;;;;5015113;28;20110;-81
2022/12/21 01:24:52;;;;;;;22.00;8.93;;;11.80;99.90;;;;;;5001747;28;20537;-81
2022/12/21 01:27:18;;;;;;;18.45;8.85;;;11.80;99.90;;;;;;5016297;28;20045;-81
2022/12/21 01:29:43;;;;;;;20.55;9.50;;;11.80;99.90;;;;;;5017750;28;20386;-81
2022/12/21 01:32:09;;;;;;;17.30;8.63;;;11.80;99.90;;;;;;5013378;28;20033;-81
2022/12/21 01:34:35;;;;;;;23.15;9.77;;;11.80;99.90;;;;;;5019445;28;20057;-81
2022/12/21 01:37:01;;;;;;;22.48;9.20;;;11.70;99.90;;;;;;5015133;28;20405;-81
2022/12/21 01:39:29;;;;;;;23.95;9.23;;;11.70;99.90;;;;;;5013704;28;20029;-82
2022/12/21 01:41:55;;;;;;;29.63;9.25;;;11.70;99.90;;;;;;4998150;28;20033;-79
2022/12/21 01:44:59;;;;;;;24.67;9.40;;;11.70;99.90;;;;;;5014197;28;20105;-80
2022/12/21 01:47:40;;;;;;;20.60;8.85;;;11.70;99.90;;;;;;5006504;28;20037;-81
2022/12/21 01:50:25;;;;;;;17.70;8.98;;;11.80;99.90;;;;;;5017366;28;20152;-80
2022/12/21 01:52:53;;;;;;;37.97;20.90;;;11.80;99.90;;;;;;5000414;28;20034;-80
2022/12/21 01:55:19;;;;;;;23.10;9.88;;;11.70;99.90;;;;;;4992013;28;20033;-80
2022/12/21 01:57:45;;;;;;;33.58;14.77;;;11.80;99.90;;;;;;5009068;28;20069;-81
2022/12/21 02:00:11;;;;;;;20.60;10.30;;;11.80;99.90;;;;;;5001436;28;20053;-81
2022/12/21 02:02:53;;;;;;;35.28;15.20;;;11.80;99.90;;;;;;5000956;28;20431;-81
2022/12/21 02:05:25;;;;;;;17.85;7.88;;;11.80;99.90;;;;;;5012852;28;20100;-81
2022/12/21 02:07:53;;;;;;;15.32;7.20;;;11.80;99.90;;;;;;5012534;28;20022;-78
2022/12/21 02:10:19;;;;;;;20.45;8.20;;;11.90;99.90;;;;;;4996068;28;20062;-80
2022/12/21 02:12:48;;;;;;;19.23;8.32;;;12.00;99.90;;;;;;4994920;28;20032;-79
2022/12/21 02:15:14;;;;;;;22.58;9.48;;;12.00;99.90;;;;;;4994081;28;20041;-80
2022/12/21 02:18:15;;;;;;;19.88;8.85;;;12.00;99.90;;;;;;4995400;28;20022;-78
2022/12/21 02:21:05;;;;;;;16.92;8.27;;;12.00;99.90;;;;;;4976895;28;20027;-79
2022/12/21 02:23:45;;;;;;;21.40;8.63;;;11.90;99.90;;;;;;4992656;28;20413;-79
2022/12/21 02:26:33;;;;;;;18.83;9.83;;;11.90;99.90;;;;;;5006516;28;20137;-78
2022/12/21 02:29:27;;;;;;;17.40;8.70;;;11.80;99.90;;;;;;5014615;28;20032;-79
2022/12/21 02:32:19;;;;;;;17.70;10.32;;;11.80;99.90;;;;;;5015006;28;20036;-78
2022/12/21 02:34:51;;;;;;;36.05;20.08;;;11.80;99.90;;;;;;5014511;28;20034;-80
2022/12/21 02:37:34;;;;;;;24.42;10.32;;;11.70;99.90;;;;;;5011622;28;20025;-79
2022/12/21 02:40:18;;;;;;;25.40;11.02;;;11.70;99.90;;;;;;5016620;28;20478;-80
2022/12/21 02:45:45;;;;;;;23.05;12.68;;;11.50;99.90;;;;;;5010634;28;20068;-77
2022/12/21 02:48:29;;;;;;;28.40;16.20;;;11.50;99.90;;;;;;4994179;28;20120;-79
2022/12/21 02:50:59;;;;;;;24.70;13.95;;;11.40;99.90;;;;;;5016284;28;20073;-79
2022/12/21 02:53:38;;;;;;;13.02;8.70;;;11.40;99.90;;;;;;4995575;28;20106;-79
2022/12/21 02:56:04;;;;;;;25.23;16.10;;;11.40;99.90;;;;;;5013268;28;20053;-80
2022/12/21 02:58:30;;;;;;;18.48;10.05;;;11.40;99.90;;;;;;4995977;28;20030;-80
2022/12/21 03:01:17;;;;;;;17.60;7.85;;;11.40;99.90;;;;;;4995992;28;20018;-79
2022/12/21 03:04:00;;;;;;;19.98;8.55;;;11.40;99.90;;;;;;5004526;28;20031;-80
2022/12/21 03:06:48;;;;;;;10.40;5.93;;;11.50;99.90;;;;;;4996742;28;20033;-80
2022/12/21 03:09:57;;;;;;;16.17;7.55;;;11.50;99.90;;;;;;5010869;28;20069;-80
2022/12/21 03:12:46;;;;;;;14.52;7.05;;;11.50;99.90;;;;;;4999554;28;20032;-80
2022/12/21 03:15:20;;;;;;;14.75;8.20;;;11.50;99.90;;;;;;4999995;28;20030;-80
2022/12/21 03:18:08;;;;;;;14.55;7.30;;;11.50;99.90;;;;;;5012230;28;20042;-79
2022/12/21 03:20:56;;;;;;;10.52;7.30;;;11.50;99.90;;;;;;5017040;28;20382;-79
2022/12/21 03:23:49;;;;;;;32.95;23.85;;;11.50;99.90;;;;;;4997530;28;20049;-80
2022/12/21 03:26:23;;;;;;;11.70;9.27;;;11.50;99.90;;;;;;5008088;28;20046;-80
2022/12/21 03:28:52;;;;;;;17.80;8.38;;;11.40;99.90;;;;;;5011453;28;20453;-79
2022/12/21 03:31:21;;;;;;;17.58;8.20;;;11.40;99.90;;;;;;5015374;28;20073;-80
2022/12/21 03:33:57;;;;;;;15.15;8.25;;;11.40;99.90;;;;;;4999345;28;20072;-80
2022/12/21 03:36:37;;;;;;;14.90;7.57;;;11.30;99.90;;;;;;5015607;28;20030;-80
2022/12/21 03:39:08;;;;;;;15.23;7.68;;;11.30;99.90;;;;;;5009027;28;20018;-79
2022/12/21 03:41:46;;;;;;;16.25;9.65;;;11.30;99.90;;;;;;5015238;28;20506;-79
2022/12/21 03:44:15;;;;;;;16.17;9.25;;;11.30;99.90;;;;;;5010535;28;20425;-79
2022/12/21 03:46:49;;;;;;;16.98;8.77;;;11.20;99.90;;;;;;5016045;28;20032;-80
2022/12/21 03:49:22;;;;;;;14.27;7.50;;;11.20;99.90;;;;;;5008575;28;20556;-80
2022/12/21 03:51:55;;;;;;;11.35;7.50;;;11.20;99.90;;;;;;5010512;28;20029;-80
2022/12/21 03:54:26;;;;;;;11.18;8.43;;;11.10;99.90;;;;;;4995249;28;20026;-79
2022/12/21 03:56:53;;;;;;;14.35;8.18;;;11.10;99.90;;;;;;5010059;28;20040;-80
2022/12/21 03:59:20;;;;;;;20.20;9.10;;;11.10;99.90;;;;;;4995988;28;20405;-80
2022/12/21 04:02:10;;;;;;;11.20;8.15;;;11.10;99.90;;;;;;5011809;28;20121;-80
2022/12/21 04:05:09;;;;;;;14.02;7.25;;;11.10;99.90;;;;;;5006589;28;20021;-80
2022/12/21 04:07:37;;;;;;;17.48;8.05;;;11.10;99.90;;;;;;5009520;28;20038;-80
2022/12/21 04:10:15;;;;;;;9.10;6.90;;;11.20;99.90;;;;;;4999374;28;20030;-79
2022/12/21 04:12:41;;;;;;;18.15;7.88;;;11.20;99.90;;;;;;4998564;28;20080;-80
2022/12/21 04:15:16;;;;;;;12.07;7.70;;;11.30;99.90;;;;;;4999144;28;20042;-80
2022/12/21 04:17:43;;;;;;;16.15;6.72;;;11.30;99.90;;;;;;5010793;28;20084;-80
2022/12/21 04:20:16;;;;;;;9.48;6.43;;;11.40;99.90;;;;;;5016341;28;20029;-80
2022/12/21 04:28:21;;;;;;;9.50;5.82;;;11.50;99.90;;;;;;5016795;28;20069;-78
2022/12/21 04:30:47;;;;;;;9.63;6.43;;;11.50;99.90;;;;;;5002266;28;20030;-79
2022/12/21 04:33:16;;;;;;;9.75;6.70;;;11.50;99.90;;;;;;5014870;28;20141;-80
2022/12/21 04:38:28;;;;;;;11.65;7.40;;;11.50;99.90;;;;;;5012001;28;20084;-81
2022/12/21 04:40:55;;;;;;;7.85;6.22;;;11.50;99.90;;;;;;5001700;28;20026;-80
2022/12/21 04:43:22;;;;;;;13.00;7.05;;;11.40;99.90;;;;;;4994227;28;20405;-79
2022/12/21 04:45:48;;;;;;;12.77;6.85;;;11.40;99.90;;;;;;5002573;28;20026;-80
2022/12/21 04:48:15;;;;;;;13.75;6.88;;;11.40;99.90;;;;;;5012693;28;20033;-80
2022/12/21 04:50:42;;;;;;;32.47;16.48;;;11.40;99.90;;;;;;5002782;28;20482;-80
2022/12/21 04:53:08;;;;;;;34.42;16.55;;;11.40;99.90;;;;;;5006970;28;20030;-80
2022/12/21 04:55:34;;;;;;;30.52;17.45;;;11.30;99.90;;;;;;4993011;28;20026;-80
2022/12/21 04:58:00;;;;;;;13.50;8.15;;;11.30;99.90;;;;;;5000469;28;20026;-80
2022/12/21 05:00:26;;;;;;;12.43;7.35;;;11.30;99.90;;;;;;4993169;28;20356;-80
2022/12/21 05:02:52;;;;;;;30.48;16.15;;;11.20;99.90;;;;;;5001789;28;20034;-80
2022/12/21 05:05:18;;;;;;;23.58;13.05;;;11.20;99.90;;;;;;4993011;28;20916;-80
2022/12/21 05:07:43;;;;;;;14.43;7.85;;;11.20;99.90;;;;;;5001684;28;20488;-80
2022/12/21 05:10:09;;;;;;;17.52;10.43;;;11.10;99.90;;;;;;5002268;28;20022;-79
2022/12/21 05:12:37;;;;;;;17.17;8.43;;;11.10;99.90;;;;;;5001879;28;20037;-80
2022/12/21 05:15:03;;;;;;;55.60;30.80;;;11.00;99.90;;;;;;5015762;28;20461;-80
2022/12/21 05:17:28;;;;;;;20.48;12.45;;;11.00;99.90;;;;;;5001760;28;20062;-79
2022/12/21 05:19:54;;;;;;;16.83;8.20;;;11.00;99.90;;;;;;5002209;28;20022;-81
2022/12/21 05:22:20;;;;;;;18.83;9.68;;;11.00;99.90;;;;;;4998284;28;20034;-82
2022/12/21 05:24:46;;;;;;;21.92;11.48;;;11.00;99.90;;;;;;5017732;28;20177;-80
2022/12/21 05:27:12;;;;;;;16.73;8.52;;;10.90;99.90;;;;;;5017381;28;20042;-81
2022/12/21 05:29:38;;;;;;;71.55;32.67;;;11.00;99.90;;;;;;5018641;28;20470;-79
2022/12/21 05:32:04;;;;;;;64.40;28.55;;;11.00;99.90;;;;;;5015390;28;20057;-77
2022/12/21 05:34:30;;;;;;;62.13;30.30;;;11.00;99.90;;;;;;5017582;28;20029;-79
2022/12/21 05:36:56;;;;;;;25.70;12.25;;;11.00;99.90;;;;;;5016262;28;20029;-80
2022/12/21 05:39:22;;;;;;;47.80;23.90;;;11.00;99.90;;;;;;5013197;28;20022;-81
2022/12/21 05:41:48;;;;;;;18.88;11.43;;;11.00;99.90;;;;;;4993565;28;20018;-80
2022/12/21 05:44:14;;;;;;;14.30;7.93;;;11.00;99.90;;;;;;5012857;28;20022;-79
2022/12/21 05:46:39;;;;;;;16.30;9.68;;;11.00;99.90;;;;;;5018192;28;20394;-77
2022/12/21 05:49:05;;;;;;;88.65;40.28;;;11.00;99.90;;;;;;5013581;28;20101;-79
2022/12/21 05:51:31;;;;;;;22.70;11.40;;;11.10;99.90;;;;;;5014755;28;20409;-79
2022/12/21 05:53:57;;;;;;;15.15;8.88;;;11.00;99.90;;;;;;5003146;28;20038;-80
2022/12/21 05:56:23;;;;;;;42.72;19.25;;;11.00;99.90;;;;;;5015792;28;20026;-80
2022/12/21 05:58:49;;;;;;;16.40;9.15;;;11.00;99.90;;;;;;5004748;28;20023;-79
2022/12/21 06:01:15;;;;;;;12.02;8.23;;;11.00;99.90;;;;;;5015746;28;20600;-79
2022/12/21 06:03:41;;;;;;;62.97;33.78;;;10.90;99.90;;;;;;5008085;28;20049;-81
2022/12/21 06:06:12;;;;;;;214.13;109.78;;;10.90;99.90;;;;;;5016109;28;20093;-80
2022/12/21 06:08:38;;;;;;;77.95;41.70;;;10.90;99.90;;;;;;5014072;28;20024;-80
2022/12/21 06:11:15;;;;;;;105.55;52.50;;;10.90;99.90;;;;;;5015299;28;20136;-80
2022/12/21 06:13:42;;;;;;;101.72;54.90;;;10.90;99.90;;;;;;5014791;28;20026;-80
2022/12/21 06:16:10;;;;;;;184.45;97.25;;;10.80;99.90;;;;;;5015600;28;20018;-80
2022/12/21 06:18:37;;;;;;;19.52;10.00;;;10.80;99.90;;;;;;5014271;28;20018;-80
2022/12/21 06:21:03;;;;;;;59.13;31.23;;;10.80;99.90;;;;;;5016270;28;20026;-80
2022/12/21 06:23:29;;;;;;;44.50;24.40;;;10.80;99.90;;;;;;5012525;28;20511;-80
2022/12/21 06:26:00;;;;;;;110.35;55.63;;;10.80;99.90;;;;;;5016244;28;20049;-80
2022/12/21 06:28:26;;;;;;;70.85;39.00;;;10.70;99.90;;;;;;4998026;28;20053;-80
2022/12/21 06:30:53;;;;;;;57.35;31.63;;;10.70;99.90;;;;;;5016831;28;20093;-80
2022/12/21 06:33:20;;;;;;;20.35;12.90;;;10.70;99.90;;;;;;5013638;28;20022;-80
2022/12/21 06:35:47;;;;;;;28.80;13.85;;;10.70;99.90;;;;;;4999551;28;20125;-80
2022/12/21 06:38:13;;;;;;;45.95;24.95;;;10.70;99.90;;;;;;5013535;28;20028;-79
2022/12/21 06:40:39;;;;;;;40.50;18.13;;;10.70;99.90;;;;;;5016982;28;20070;-79
2022/12/21 06:43:05;;;;;;;32.78;17.52;;;10.70;99.90;;;;;;5014109;28;20029;-79
2022/12/21 06:45:31;;;;;;;23.02;14.02;;;10.70;99.90;;;;;;4999480;28;20030;-79
2022/12/21 06:47:57;;;;;;;50.42;24.75;;;10.70;99.90;;;;;;4998455;28;20029;-79
2022/12/21 06:50:23;;;;;;;33.28;17.15;;;10.70;99.90;;;;;;5002464;28;20025;-80
2022/12/21 06:52:49;;;;;;;20.25;12.18;;;10.80;99.90;;;;;;5013275;28;20041;-80
2022/12/21 06:55:15;;;;;;;75.13;45.47;;;10.80;99.90;;;;;;5016212;28;20026;-79
2022/12/21 06:57:42;;;;;;;34.42;19.63;;;10.80;99.90;;;;;;5011141;28;20046;-79
2022/12/21 07:00:13;;;;;;;11.48;8.35;;;10.80;99.90;;;;;;5015975;28;20021;-78
2022/12/21 07:02:39;;;;;;;13.68;7.88;;;10.90;99.90;;;;;;4998812;28;20022;-79
2022/12/21 07:05:06;;;;;;;13.52;10.52;;;10.90;99.90;;;;;;4998932;28;20026;-80
2022/12/21 07:07:31;;;;;;;10.95;6.75;;;11.00;99.90;;;;;;5011553;28;20022;-81
2022/12/21 07:09:57;;;;;;;12.70;7.80;;;11.00;99.90;;;;;;4998788;28;20033;-80
2022/12/21 07:12:23;;;;;;;12.68;7.90;;;11.00;99.90;;;;;;4998409;28;20026;-81
2022/12/21 07:14:49;;;;;;;9.38;6.90;;;11.10;99.90;;;;;;4998810;28;20033;-80
2022/12/21 07:17:15;;;;;;;14.20;7.32;;;11.10;99.90;;;;;;4998429;28;20053;-80
2022/12/21 07:19:40;;;;;;;9.23;8.23;;;11.10;99.90;;;;;;5017184;28;20032;-80
2022/12/21 07:22:06;;;;;;;10.43;7.20;;;11.10;99.90;;;;;;4998286;28;20084;-80
2022/12/21 07:24:32;;;;;;;8.48;7.13;;;11.10;99.90;;;;;;5013986;28;20068;-80
2022/12/21 07:26:58;;;;;;;11.38;8.05;;;11.10;99.90;;;;;;5012571;28;20025;-80
2022/12/21 07:29:24;;;;;;;14.02;7.05;;;11.00;99.90;;;;;;4999035;28;20036;-80
2022/12/21 07:31:51;;;;;;;33.58;19.90;;;10.90;99.90;;;;;;5014323;28;20028;-80
2022/12/21 07:34:17;;;;;;;11.32;7.57;;;10.90;99.90;;;;;;5011426;28;20014;-80
2022/12/21 07:36:43;;;;;;;10.93;8.23;;;10.90;99.90;;;;;;5014940;28;20104;-80
2022/12/21 07:39:09;;;;;;;25.38;14.52;;;10.80;99.90;;;;;;4992802;28;20068;-80
2022/12/21 07:41:34;;;;;;;11.05;6.90;;;10.90;99.90;;;;;;4997093;28;20029;-80
2022/12/21 07:44:00;;;;;;;50.83;33.42;;;10.90;99.90;;;;;;5011032;28;20394;-80
2022/12/21 07:46:26;;;;;;;53.10;32.25;;;10.80;99.90;;;;;;5014117;28;20038;-80
2022/12/21 07:48:52;;;;;;;23.38;9.90;;;10.90;99.90;;;;;;4994705;28;20033;-80
2022/12/21 07:51:18;;;;;;;110.97;69.55;;;10.90;99.90;;;;;;4995965;28;20058;-80
2022/12/21 07:53:44;;;;;;;60.45;35.88;;;11.00;99.90;;;;;;5011012;28;20038;-80
2022/12/21 07:56:16;;;;;;;13.07;9.30;;;11.00;99.90;;;;;;4995463;28;21041;-80
2022/12/21 07:58:42;;;;;;;16.58;9.60;;;11.00;99.90;;;;;;4993810;28;20030;-80
2022/12/21 08:01:11;;;;;;;23.08;13.70;;;11.10;99.90;;;;;;5019036;28;20028;-79
2022/12/21 08:03:38;;;;;;;23.23;19.08;;;11.10;99.90;;;;;;4993796;28;20506;-80
2022/12/21 08:06:06;;;;;;;18.15;14.18;;;11.20;99.90;;;;;;5006488;28;20029;-80
2022/12/21 08:08:32;;;;;;;11.10;8.27;;;11.20;99.90;;;;;;5017446;28;20026;-80
2022/12/21 08:10:58;;;;;;;12.50;7.95;;;11.20;99.90;;;;;;5001008;28;20045;-80
2022/12/21 08:13:24;;;;;;;9.70;7.88;;;11.30;99.90;;;;;;5016752;28;20026;-80
2022/12/21 08:15:58;;;;;;;11.30;7.15;;;11.30;99.90;;;;;;5017414;28;20022;-80
2022/12/21 08:18:24;;;;;;;14.25;7.88;;;11.30;99.90;;;;;;5014376;28;20370;-80
2022/12/21 08:20:50;;;;;;;13.30;8.13;;;11.30;99.90;;;;;;5020706;28;20100;-80
2022/12/21 08:23:15;;;;;;;9.93;8.52;;;11.30;99.90;;;;;;4996515;28;20053;-80
2022/12/21 08:25:41;;;;;;;11.38;8.80;;;11.40;99.90;;;;;;5020322;28;20061;-80
2022/12/21 08:28:07;;;;;;;17.77;9.15;;;11.40;99.90;;;;;;5014561;28;20105;-80
2022/12/21 08:30:33;;;;;;;13.52;9.38;;;11.40;99.90;;;;;;5001828;28;20413;-79
2022/12/21 08:32:59;;;;;;;14.50;10.02;;;11.50;99.90;;;;;;5016221;28;20061;-79
2022/12/21 08:35:28;;;;;;;11.77;9.50;;;11.60;99.90;;;;;;5025780;28;20021;-80
2022/12/21 08:37:54;;;;;;;12.27;9.93;;;11.60;99.90;;;;;;5017148;28;20551;-78
2022/12/21 08:40:20;;;;;;;13.80;11.05;;;11.60;99.90;;;;;;5022909;28;20108;-79
2022/12/21 08:42:46;;;;;;;16.27;10.35;;;11.70;99.90;;;;;;5017328;28;20144;-79
2022/12/21 08:45:12;;;;;;;21.67;11.95;;;11.70;99.90;;;;;;5018562;28;20037;-79
2022/12/21 08:47:39;;;;;;;15.30;10.63;;;11.70;99.90;;;;;;5001498;28;20037;-79
2022/12/21 08:50:06;;;;;;;15.80;10.75;;;11.70;99.90;;;;;;5019399;28;20026;-79
2022/12/21 08:52:32;;;;;;;14.77;10.77;;;11.70;99.90;;;;;;5020760;28;20442;-80
2022/12/21 08:54:58;;;;;;;16.35;11.90;;;11.70;99.90;;;;;;5012228;28;20029;-80
2022/12/21 08:57:24;;;;;;;15.68;11.30;;;11.70;99.90;;;;;;5019802;28;20106;-79
2022/12/21 08:59:50;;;;;;;54.67;28.92;;;11.70;99.90;;;;;;5023022;28;20035;-80
2022/12/21 09:02:16;;;;;;;156.68;76.60;;;11.70;99.90;;;;;;5015682;28;20113;-80
2022/12/21 09:04:42;;;;;;;417.33;209.05;;;11.60;99.90;;;;;;5017191;28;20045;-80
2022/12/21 09:07:08;;;;;;;101.38;48.47;;;11.60;99.90;;;;;;5020534;28;20037;-80
2022/12/21 09:09:34;;;;;;;413.63;184.65;;;11.60;99.90;;;;;;5030450;28;20444;-80
2022/12/21 09:12:00;;;;;;;170.55;73.38;;;11.70;99.90;;;;;;5000329;28;20037;-80
2022/12/21 09:14:28;;;;;;;156.80;74.40;;;11.70;99.90;;;;;;5026175;28;20108;-79
2022/12/21 09:16:54;;;;;;;82.32;44.35;;;11.70;99.90;;;;;;4998893;28;20029;-80
2022/12/21 09:19:20;;;;;;;386.60;193.07;;;11.70;99.90;;;;;;5022155;28;20109;-80
2022/12/21 09:21:46;;;;;;;743.65;482.35;;;11.70;99.90;;;;;;5018586;28;20030;-79
2022/12/21 09:24:13;;;;;;;462.38;268.75;;;11.80;99.90;;;;;;4993590;28;20249;-82
2022/12/21 09:26:41;;;;;;;19.17;11.23;;;11.80;99.90;;;;;;4994894;28;20066;-85
2022/12/21 09:29:09;;;;;;;12.48;10.05;;;11.80;99.90;;;;;;5004231;28;20030;-80
2022/12/21 09:31:35;;;;;;;21.67;12.30;;;11.90;99.90;;;;;;4979247;28;20486;-80
2022/12/21 09:34:01;;;;;;;20.75;14.13;;;12.00;99.90;;;;;;4976651;28;20079;-80
2022/12/21 09:36:27;;;;;;;19.17;11.52;;;12.20;99.90;;;;;;5000250;28;20027;-76
2022/12/21 09:38:54;;;;;;;15.82;9.80;;;12.30;99.90;;;;;;4997164;28;20034;-78
2022/12/21 09:41:29;;;;;;;11.90;9.10;;;12.40;99.90;;;;;;4984463;28;20050;-78
2022/12/21 09:44:10;;;;;;;13.07;9.02;;;12.40;99.90;;;;;;4999501;28;20030;-80
2022/12/21 09:46:39;;;;;;;13.07;9.32;;;12.40;99.90;;;;;;4980736;28;20027;-79
2022/12/21 09:49:10;;;;;;;12.45;9.15;;;12.50;99.90;;;;;;4988867;28;20041;-80
2022/12/21 09:51:37;;;;;;;24.33;14.80;;;12.60;99.90;;;;;;4977458;28;20137;-81
2022/12/21 09:54:20;;;;;;;14.13;9.20;;;12.60;99.90;;;;;;4989274;28;20034;-78
2022/12/21 09:56:50;;;;;;;12.98;9.35;;;12.60;99.90;;;;;;4998227;28;20487;-78
2022/12/21 09:59:17;;;;;;;;;;;12.70;99.90;;;;;;5002477;28;20051;-79
2022/12/21 10:02:06;;;;;;;103.45;61.30;;;12.70;99.90;;;;;;4998437;28;19996;-78
2022/12/21 10:04:42;;;;;;;16.30;11.82;;;12.90;99.90;;;;;;4955263;28;20041;-80
2022/12/21 10:07:34;;;;;;;15.23;10.73;;;13.00;99.90;;;;;;4980015;28;20030;-79
2022/12/21 10:10:23;;;;;;;15.38;10.10;;;13.20;99.90;;;;;;4983838;28;20069;-83
2022/12/21 10:13:37;;;;;;;11.45;7.03;;;13.30;99.90;;;;;;4983194;28;20033;-78
2022/12/21 10:16:30;;;;;;;17.73;10.60;;;13.40;99.90;;;;;;4963594;28;20117;-83
2022/12/21 10:19:04;;;;;;;11.43;8.07;;;13.50;99.90;;;;;;4979789;28;20031;-82
2022/12/21 10:21:40;;;;;;;10.52;5.95;;;13.50;99.90;;;;;;4981749;28;20064;-82
2022/12/21 10:24:17;;;;;;;10.85;4.88;;;13.50;99.90;;;;;;5004150;28;20030;-81
2022/12/21 10:26:43;;;;;;;6.13;4.22;;;13.50;99.90;;;;;;4981503;28;20074;-80
2022/12/21 10:29:22;;;;;;;7.38;5.95;;;13.50;99.90;;;;;;4990832;28;20512;-80
2022/12/21 10:31:48;;;;;;;8.25;4.22;;;13.60;99.90;;;;;;4986999;28;20038;-81
2022/12/21 10:34:22;;;;;;;7.18;3.67;;;13.60;99.90;;;;;;4977244;28;20043;-81
2022/12/21 10:36:52;;;;;;;41.00;25.58;;;13.70;99.90;;;;;;5005521;28;20054;-83
2022/12/21 10:39:18;;;;;;;156.18;93.45;;;13.80;99.90;;;;;;4987888;28;20101;-82
2022/12/21 10:41:57;;;;;;;194.50;111.57;;;13.80;99.90;;;;;;5009846;28;20540;-86
2022/12/21 10:44:26;;;;;;;7.13;4.80;;;13.80;99.90;;;;;;4989395;28;20084;-82
2022/12/21 10:46:54;;;;;;;7.97;5.05;;;13.90;99.90;;;;;;5013577;28;20356;-85
2022/12/21 10:49:31;;;;;;;7.78;4.00;;;14.00;99.90;;;;;;5010551;28;20037;-82
2022/12/21 10:52:00;;;;;;;5.78;3.35;;;14.00;99.90;;;;;;5002790;28;20030;-83
2022/12/21 10:54:28;;;;;;;7.07;3.90;;;14.10;99.90;;;;;;5017055;28;20033;-83
2022/12/21 10:56:58;;;;;;;4.60;3.45;;;14.10;99.90;;;;;;5009913;28;20029;-85
2022/12/21 10:59:30;;;;;;;7.43;3.60;;;14.20;99.90;;;;;;4985689;28;20022;-84
2022/12/21 11:01:56;;;;;;;6.78;3.30;;;14.20;99.90;;;;;;5004428;28;20041;-84
2022/12/21 11:04:22;;;;;;;5.43;2.97;;;14.20;99.90;;;;;;5011166;28;20022;-83
2022/12/21 11:07:04;;;;;;;4.82;3.65;;;14.20;99.90;;;;;;4997542;28;20447;-79
2022/12/21 11:09:33;;;;;;;4.85;3.30;;;14.20;99.90;;;;;;4994530;28;20049;-79
2022/12/21 11:12:14;;;;;;;15.75;8.68;;;14.20;99.90;;;;;;4986416;28;20543;-80
2022/12/21 11:14:40;;;;;;;10.07;6.32;;;14.20;99.90;;;;;;5004133;28;20076;-79
2022/12/21 11:17:09;;;;;;;154.98;87.25;;;14.30;99.90;;;;;;4981579;28;20383;-79
2022/12/21 11:19:37;;;;;;;76.32;48.13;;;14.20;99.90;;;;;;5002092;28;20030;-81
2022/12/21 11:22:07;;;;;;;31.80;20.02;;;14.30;99.90;;;;;;4983842;28;20046;-80
2022/12/21 11:24:37;;;;;;;5.97;3.97;;;14.20;99.90;;;;;;5000579;28;20049;-79
2022/12/21 11:27:12;;;;;;;5.45;2.30;;;14.20;99.90;;;;;;4999539;28;20465;-78
2022/12/21 11:30:01;;;;;;;3.72;2.25;;;14.30;99.90;;;;;;5023334;28;20489;-79
2022/12/21 11:32:29;;;;;;;3.42;2.40;;;14.50;99.90;;;;;;5016174;28;20520;-79
2022/12/21 11:35:03;;;;;;;3.05;2.00;;;14.50;99.90;;;;;;4992862;28;20037;-78
2022/12/21 11:37:38;;;;;;;3.13;2.60;;;14.60;99.90;;;;;;5018417;28;20025;-77
2022/12/21 11:40:26;;;;;;;3.53;2.50;;;14.60;99.90;;;;;;5010462;28;20022;-78
2022/12/21 11:42:52;;;;;;;3.35;2.20;;;14.70;99.90;;;;;;5016859;28;20390;-80
2022/12/21 11:45:26;;;;;;;2.58;1.80;;;14.60;99.90;;;;;;5002864;28;20025;-79
2022/12/21 11:48:10;;;;;;;3.20;2.00;;;14.60;99.90;;;;;;5002975;28;20038;-79
2022/12/21 11:50:40;;;;;;;3.95;2.22;;;14.60;99.90;;;;;;4993893;28;20026;-80
2022/12/21 11:53:23;;;;;;;4.43;2.10;;;14.60;99.90;;;;;;5021735;28;20556;-80
2022/12/21 11:56:20;;;;;;;2.17;1.70;;;14.60;99.90;;;;;;5015401;28;20018;-80
2022/12/21 11:59:20;;;;;;;2.83;1.98;;;14.50;99.90;;;;;;5015833;28;20033;-81
2022/12/21 12:02:00;;;;;;;2.33;1.80;;;14.50;99.90;;;;;;4994937;28;20026;-80
2022/12/21 12:04:50;;;;;;;3.25;1.50;;;14.50;99.90;;;;;;4990434;28;20033;-81
2022/12/21 12:07:25;;;;;;;7.63;3.17;;;14.60;99.90;;;;;;4989104;28;20026;-80
2022/12/21 12:10:23;;;;;;;7.20;2.30;;;14.50;99.90;;;;;;4998955;28;20129;-79
2022/12/21 12:13:20;;;;;;;3.47;2.10;;;14.50;99.90;;;;;;4987450;28;20117;-81
2022/12/21 12:16:12;;;;;;;3.65;2.55;;;14.50;99.90;;;;;;5018652;28;20460;-80
2022/12/21 12:18:49;;;;;;;6.55;2.45;;;14.50;99.90;;;;;;4998880;28;20436;-80
2022/12/21 12:21:43;;;;;;;3.80;2.63;;;14.60;99.90;;;;;;5010986;28;20038;-80
2022/12/21 12:24:34;;;;;;;3.63;2.85;;;14.60;99.90;;;;;;5018143;28;20026;-80
2022/12/21 12:27:15;;;;;;;5.68;3.72;;;14.70;99.90;;;;;;5022076;28;20501;-81
2022/12/21 12:29:44;;;;;;;4.97;3.40;;;14.70;99.90;;;;;;5005335;28;20030;-81
2022/12/21 12:32:37;;;;;;;6.13;2.90;;;14.70;99.90;;;;;;5019589;28;20025;-82
2022/12/21 12:35:22;;;;;;;3.15;2.60;;;14.70;99.90;;;;;;5023292;28;20143;-81
2022/12/21 12:37:49;;;;;;;4.78;2.33;;;14.70;99.90;;;;;;5011582;28;20113;-80
2022/12/21 12:40:23;;;;;;;4.47;2.92;;;14.80;99.90;;;;;;5003102;28;20022;-80
2022/12/21 12:43:08;;;;;;;4.28;3.00;;;14.90;99.90;;;;;;5024460;28;20021;-81
2022/12/21 12:45:43;;;;;;;3.85;2.65;;;14.90;99.90;;;;;;5010936;28;20069;-82
2022/12/21 12:48:29;;;;;;;3.80;2.08;;;14.90;99.90;;;;;;5010229;28;20029;-82
2022/12/21 12:50:55;;;;;;;6.95;2.75;;;14.90;99.90;;;;;;5018819;28;20046;-81
2022/12/21 12:53:33;;;;;;;3.92;2.15;;;14.90;99.90;;;;;;4996582;28;20402;-81
2022/12/21 12:56:17;;;;;;;2.58;1.85;;;14.90;99.90;;;;;;5000669;28;20026;-80
2022/12/21 12:59:00;;;;;;;2.88;2.13;;;14.90;99.90;;;;;;5003211;28;20026;-80
2022/12/21 13:02:01;;;;;;;2.33;1.60;;;15.00;99.90;;;;;;4989580;28;20100;-80
2022/12/21 13:04:50;;;;;;;2.58;1.80;;;14.90;99.90;;;;;;4988341;28;20030;-81
2022/12/21 13:07:26;;;;;;;4.20;1.70;;;14.90;99.90;;;;;;5001039;28;20621;-82
2022/12/21 13:10:28;;;;;;;4.32;1.95;;;14.80;99.90;;;;;;4997822;28;20018;-82